createdAt,value
2018-11-14T00:00:34.172Z,7.80
2018-11-14T00:03:03.876Z,7.70
2018-11-14T00:05:32.325Z,7.70
2018-11-14T00:08:07.531Z,7.80
2018-11-14T00:10:36.132Z,7.80
2018-11-14T00:13:04.618Z,7.80
2018-11-14T00:15:33.062Z,7.70
2018-11-14T00:18:01.497Z,7.70
2018-11-14T00:20:29.934Z,7.70
2018-11-14T00:22:58.387Z,7.80
2018-11-14T00:25:26.818Z,7.80
2018-11-14T00:27:55.310Z,7.70
2018-11-14T00:30:24.925Z,7.80
2018-11-14T00:32:53.478Z,7.80
2018-11-14T00:35:21.999Z,7.70
2018-11-14T00:37:51.086Z,7.70
2018-11-14T00:40:20.381Z,7.50
2018-11-14T00:42:49.193Z,7.60
2018-11-14T00:45:19.756Z,7.60
2018-11-14T00:47:48.906Z,7.70
2018-11-14T00:50:18.091Z,7.50
2018-11-14T00:52:46.795Z,7.50
2018-11-14T00:55:16.482Z,7.50
2018-11-14T00:57:46.104Z,7.40
2018-11-14T01:00:18.571Z,7.30
2018-11-14T01:02:47.262Z,7.30
2018-11-14T01:05:16.882Z,7.20
2018-11-14T01:07:45.346Z,7.20
2018-11-14T01:10:15.546Z,7.20
2018-11-14T01:12:44.555Z,7.20
2018-11-14T01:15:15.238Z,7.10
2018-11-14T01:17:43.903Z,7.20
2018-11-14T01:20:14.380Z,7.20
2018-11-14T01:22:43.609Z,7.10
2018-11-14T01:25:13.099Z,7.10
2018-11-14T01:27:41.695Z,7.00
2018-11-14T01:30:13.330Z,7.00
2018-11-14T01:32:42.132Z,6.90
2018-11-14T01:35:10.642Z,6.80
2018-11-14T01:37:39.277Z,6.70
2018-11-14T01:40:10.985Z,6.80
2018-11-14T01:42:39.444Z,6.90
2018-11-14T01:45:09.601Z,6.80
2018-11-14T01:47:38.034Z,6.80
2018-11-14T01:50:08.033Z,6.80
2018-11-14T01:52:43.147Z,7.00
2018-11-14T01:55:17.227Z,6.90
2018-11-14T01:57:45.706Z,6.80
2018-11-14T02:00:19.104Z,6.70
2018-11-14T02:02:47.576Z,6.70
2018-11-14T02:05:16.146Z,6.60
2018-11-14T02:07:44.628Z,6.70
2018-11-14T02:10:14.777Z,6.70
2018-11-14T02:12:43.800Z,6.70
2018-11-14T02:15:17.661Z,6.70
2018-11-14T02:17:46.205Z,6.70
2018-11-14T02:20:14.879Z,6.60
2018-11-14T02:22:44.470Z,6.60
2018-11-14T02:25:13.444Z,6.60
2018-11-14T02:27:42.149Z,6.60
2018-11-14T02:30:20.633Z,6.60
2018-11-14T02:32:49.094Z,6.60
2018-11-14T02:35:17.563Z,6.70
2018-11-14T02:37:46.536Z,6.70
2018-11-14T02:40:16.136Z,6.70
2018-11-14T02:42:44.644Z,6.60
2018-11-14T02:45:13.470Z,6.70
2018-11-14T02:47:41.941Z,6.60
2018-11-14T02:50:12.105Z,6.60
2018-11-14T02:52:40.546Z,6.60
2018-11-14T02:55:10.306Z,6.60
2018-11-14T02:57:38.738Z,6.60
2018-11-14T03:00:10.029Z,6.60
2018-11-14T03:02:38.508Z,6.50
2018-11-14T03:05:07.337Z,6.30
2018-11-14T03:07:35.959Z,6.30
2018-11-14T03:10:05.007Z,6.40
2018-11-14T03:12:33.489Z,6.30
2018-11-14T03:15:01.875Z,6.20
2018-11-14T03:17:30.301Z,6.20
2018-11-14T03:19:58.733Z,6.20
2018-11-14T03:22:27.194Z,6.20
2018-11-14T03:24:55.591Z,6.30
2018-11-14T03:27:24.016Z,6.30
2018-11-14T03:29:52.444Z,6.20
2018-11-14T03:32:20.882Z,6.00
2018-11-14T03:34:49.402Z,5.90
2018-11-14T03:37:17.869Z,5.80
2018-11-14T03:39:46.265Z,5.60
2018-11-14T03:42:14.706Z,5.40
2018-11-14T03:44:43.129Z,5.50
2018-11-14T03:47:11.578Z,5.60
2018-11-14T03:49:40.117Z,5.60
2018-11-14T03:52:08.760Z,5.50
2018-11-14T03:54:37.216Z,5.50
2018-11-14T03:57:05.695Z,5.40
2018-11-14T03:59:34.100Z,5.40
2018-11-14T04:02:02.544Z,5.40
2018-11-14T04:04:30.985Z,5.40
2018-11-14T04:06:59.716Z,5.50
2018-11-14T04:09:28.174Z,5.40
2018-11-14T04:11:56.574Z,5.60
2018-11-14T04:14:25.017Z,5.60
2018-11-14T04:16:53.423Z,5.70
2018-11-14T04:19:21.862Z,5.60
2018-11-14T04:21:50.291Z,5.60
2018-11-14T04:24:18.731Z,5.70
2018-11-14T04:26:47.172Z,5.70
2018-11-14T04:29:21.990Z,5.80
2018-11-14T04:31:50.403Z,5.80
2018-11-14T04:34:18.838Z,5.90
2018-11-14T04:36:53.897Z,5.80
2018-11-14T04:39:22.354Z,5.80
2018-11-14T04:41:50.787Z,5.90
2018-11-14T04:44:19.234Z,5.80
2018-11-14T04:46:54.253Z,5.90
2018-11-14T04:49:22.734Z,5.90
2018-11-14T04:51:51.231Z,6.00
2018-11-14T04:54:19.709Z,5.90
2018-11-14T04:56:48.280Z,6.00
2018-11-14T04:59:16.833Z,6.00
2018-11-14T05:01:45.779Z,5.80
2018-11-14T05:04:14.316Z,5.80
2018-11-14T05:06:42.759Z,5.80
2018-11-14T05:09:12.421Z,5.80
2018-11-14T05:11:41.529Z,5.80
2018-11-14T05:14:10.838Z,5.80
2018-11-14T05:16:39.713Z,5.80
2018-11-14T05:19:08.198Z,5.80
2018-11-14T05:21:36.645Z,5.90
2018-11-14T05:24:05.182Z,5.90
2018-11-14T05:26:33.646Z,5.80
2018-11-14T05:29:02.149Z,5.80
2018-11-14T05:31:30.557Z,5.80
2018-11-14T05:33:59.020Z,5.90
2018-11-14T05:36:27.462Z,5.90
2018-11-14T05:38:55.959Z,5.80
2018-11-14T05:41:24.389Z,5.70
2018-11-14T05:43:53.555Z,5.60
2018-11-14T05:46:21.993Z,5.60
2018-11-14T05:48:50.454Z,5.50
2018-11-14T05:51:18.870Z,5.50
2018-11-14T05:53:47.429Z,5.60
2018-11-14T05:56:15.837Z,5.70
2018-11-14T05:58:44.290Z,5.70
2018-11-14T06:01:12.719Z,5.80
2018-11-14T06:03:41.162Z,5.80
2018-11-14T06:06:11.001Z,5.90
2018-11-14T06:08:39.463Z,5.90
2018-11-14T06:11:07.864Z,5.80
2018-11-14T06:13:36.355Z,5.60
2018-11-14T06:16:05.522Z,5.50
2018-11-14T06:18:33.981Z,5.50
2018-11-14T06:21:02.402Z,5.40
2018-11-14T06:23:30.902Z,5.50
2018-11-14T06:25:59.304Z,5.60
2018-11-14T06:28:27.757Z,5.60
2018-11-14T06:30:56.181Z,5.60
2018-11-14T06:33:24.634Z,5.70
2018-11-14T06:35:53.070Z,5.70
2018-11-14T06:38:21.508Z,5.70
2018-11-14T06:40:49.937Z,5.80
2018-11-14T06:43:18.409Z,5.80
2018-11-14T06:45:47.126Z,5.80
2018-11-14T06:48:15.571Z,5.80
2018-11-14T06:50:44.104Z,5.80
2018-11-14T06:53:13.792Z,5.70
2018-11-14T06:55:43.706Z,5.70
2018-11-14T06:58:12.964Z,5.60
2018-11-14T07:00:42.154Z,5.70
2018-11-14T07:03:11.437Z,5.80
2018-11-14T07:05:40.039Z,5.70
2018-11-14T07:08:08.458Z,5.80
2018-11-14T07:10:37.700Z,5.80
2018-11-14T07:13:08.252Z,5.70
2018-11-14T07:15:37.911Z,5.70
2018-11-14T07:18:07.349Z,5.80
2018-11-14T07:20:37.127Z,5.90
2018-11-14T07:23:05.823Z,5.90
2018-11-14T07:25:34.315Z,6.10
2018-11-14T07:28:02.938Z,6.00
2018-11-14T07:30:32.424Z,6.00
2018-11-14T07:33:02.626Z,6.10
2018-11-14T07:35:31.645Z,6.10
2018-11-14T07:38:39.952Z,6.00
2018-11-14T07:41:10.442Z,6.10
2018-11-14T07:43:39.369Z,6.30
2018-11-14T07:46:08.437Z,6.40
2018-11-14T07:48:37.213Z,6.70
2018-11-14T07:51:06.097Z,6.70
2018-11-14T07:53:35.518Z,6.70
2018-11-14T07:56:04.002Z,6.80
2018-11-14T07:58:33.122Z,6.80
2018-11-14T08:01:01.681Z,6.80
2018-11-14T08:03:31.650Z,6.90
2018-11-14T08:06:00.145Z,7.00
2018-11-14T08:08:29.325Z,7.10
2018-11-14T08:10:57.810Z,7.10
2018-11-14T08:13:28.718Z,7.20
2018-11-14T08:15:58.495Z,7.20
2018-11-14T08:18:27.390Z,7.20
2018-11-14T08:20:56.909Z,7.20
2018-11-14T08:23:25.366Z,7.20
2018-11-14T08:25:53.814Z,7.20
2018-11-14T08:28:22.968Z,7.20
2018-11-14T08:30:51.861Z,7.20
2018-11-14T08:33:20.746Z,7.20
2018-11-14T08:35:49.186Z,7.40
2018-11-14T08:38:17.636Z,7.30
2018-11-14T08:40:46.118Z,7.20
2018-11-14T08:43:14.569Z,7.30
2018-11-14T08:45:43.062Z,7.30
2018-11-14T08:48:11.542Z,7.40
2018-11-14T08:50:40.030Z,7.50
2018-11-14T08:53:09.992Z,7.70
2018-11-14T08:55:38.435Z,7.80
2018-11-14T08:58:09.221Z,7.90
2018-11-14T09:00:37.771Z,8.00
2018-11-14T09:03:07.106Z,8.10
2018-11-14T09:05:35.557Z,8.30
2018-11-14T09:08:04.082Z,8.30
2018-11-14T09:10:32.724Z,8.40
2018-11-14T09:13:01.188Z,8.50
2018-11-14T09:15:29.674Z,8.50
2018-11-14T09:17:58.085Z,8.60
2018-11-14T09:20:28.068Z,8.60
2018-11-14T09:22:57.126Z,8.70
2018-11-14T09:25:29.258Z,8.70
2018-11-14T09:27:58.292Z,8.70
2018-11-14T09:30:28.210Z,8.70
2018-11-14T09:32:56.714Z,8.70
2018-11-14T09:35:26.050Z,8.80
2018-11-14T09:37:55.845Z,8.90
2018-11-14T09:40:25.742Z,9.10
2018-11-14T09:42:54.684Z,9.10
2018-11-14T09:45:24.990Z,9.20
2018-11-14T09:47:53.543Z,9.50
2018-11-14T09:50:25.125Z,9.50
2018-11-14T09:52:55.875Z,9.60
2018-11-14T09:55:24.358Z,9.60
2018-11-14T09:57:53.037Z,9.80
2018-11-14T10:00:23.693Z,9.80
2018-11-14T10:02:54.477Z,9.80
2018-11-14T10:05:24.279Z,9.90
2018-11-14T10:07:53.403Z,10.00
2018-11-14T10:10:23.074Z,10.00
2018-11-14T10:12:54.034Z,10.10
2018-11-14T10:15:24.118Z,10.10
2018-11-14T10:17:53.021Z,9.90
2018-11-14T10:20:22.641Z,9.80
2018-11-14T10:22:51.157Z,9.80
2018-11-14T10:25:19.917Z,9.80
2018-11-14T10:27:49.109Z,9.80
2018-11-14T10:30:20.013Z,9.70
2018-11-14T10:32:49.527Z,9.70
2018-11-14T10:35:18.351Z,9.80
2018-11-14T10:37:46.769Z,9.90
2018-11-14T10:40:18.477Z,9.90
2018-11-14T10:42:46.971Z,10.10
2018-11-14T10:45:16.888Z,10.10
2018-11-14T10:47:45.341Z,10.20
2018-11-14T10:50:16.728Z,10.30
2018-11-14T10:52:45.269Z,10.20
2018-11-14T10:55:14.587Z,10.30
2018-11-14T10:57:43.022Z,10.30
2018-11-14T11:00:21.024Z,10.40
2018-11-14T11:02:55.010Z,10.50
2018-11-14T11:05:32.750Z,10.50
2018-11-14T11:08:06.852Z,10.50
2018-11-14T11:10:40.543Z,10.60
2018-11-14T11:13:25.402Z,10.70
2018-11-14T11:15:59.273Z,10.80
2018-11-14T11:18:29.431Z,10.90
2018-11-14T11:20:57.962Z,10.90
2018-11-14T11:23:26.497Z,10.90
2018-11-14T11:25:54.868Z,11.20
2018-11-14T11:28:23.329Z,11.30
2018-11-14T11:30:51.860Z,11.60
2018-11-14T11:33:20.308Z,11.80
2018-11-14T11:35:48.831Z,12.00
2018-11-14T11:38:17.363Z,12.10
2018-11-14T11:40:45.734Z,12.40
2018-11-14T11:43:14.183Z,12.50
2018-11-14T11:45:42.604Z,12.80
2018-11-14T11:48:11.119Z,12.90
2018-11-14T11:50:39.585Z,12.80
2018-11-14T11:53:08.067Z,12.80
2018-11-14T11:55:36.499Z,12.80
2018-11-14T11:58:05.458Z,12.80
2018-11-14T12:00:33.999Z,13.10
2018-11-14T12:03:02.351Z,13.20
2018-11-14T12:05:30.807Z,13.40
2018-11-14T12:07:59.262Z,13.60
2018-11-14T12:10:27.823Z,13.80
2018-11-14T12:12:56.295Z,13.80
2018-11-14T12:15:24.706Z,13.40
2018-11-14T12:17:53.253Z,13.40
2018-11-14T12:20:21.741Z,13.30
2018-11-14T12:22:50.183Z,13.50
2018-11-14T12:25:18.747Z,13.70
2018-11-14T12:27:47.295Z,13.90
2018-11-14T12:30:17.049Z,14.00
2018-11-14T12:32:45.582Z,14.10
2018-11-14T12:35:15.412Z,14.20
2018-11-14T12:37:43.906Z,14.50
2018-11-14T12:40:13.707Z,14.80
2018-11-14T12:42:42.213Z,14.80
2018-11-14T12:45:13.591Z,14.80
2018-11-14T12:47:42.225Z,14.80
2018-11-14T12:50:11.810Z,14.70
2018-11-14T12:52:40.782Z,14.50
2018-11-14T12:55:13.172Z,14.30
2018-11-14T12:57:41.662Z,14.60
2018-11-14T13:00:12.360Z,14.90
2018-11-14T13:02:40.785Z,15.40
2018-11-14T13:05:10.491Z,15.60
2018-11-14T13:07:39.349Z,15.70
2018-11-14T13:10:09.599Z,15.30
2018-11-14T13:12:38.139Z,15.00
2018-11-14T13:15:07.934Z,14.90
2018-11-14T13:17:36.419Z,14.70
2018-11-14T13:20:06.793Z,15.30
2018-11-14T13:22:35.230Z,15.50
2018-11-14T13:25:03.902Z,15.50
2018-11-14T13:27:32.328Z,15.50
2018-11-14T13:30:00.809Z,15.60
2018-11-14T13:32:29.287Z,15.60
2018-11-14T13:34:57.816Z,15.40
2018-11-14T13:37:26.214Z,15.20
2018-11-14T13:39:54.734Z,15.30
2018-11-14T13:42:23.275Z,14.90
2018-11-14T13:44:51.778Z,14.60
2018-11-14T13:47:20.237Z,14.40
2018-11-14T13:49:48.933Z,14.60
2018-11-14T13:52:17.241Z,14.50
2018-11-14T13:54:45.706Z,14.20
2018-11-14T13:57:14.146Z,14.10
2018-11-14T13:59:42.571Z,14.20
2018-11-14T14:02:11.039Z,13.80
2018-11-14T14:04:39.493Z,14.00
2018-11-14T14:07:07.970Z,14.10
2018-11-14T14:09:36.498Z,13.90
2018-11-14T14:12:05.388Z,14.00
2018-11-14T14:14:33.828Z,14.10
2018-11-14T14:17:02.294Z,14.00
2018-11-14T14:19:30.718Z,13.90
2018-11-14T14:21:59.218Z,13.60
2018-11-14T14:24:27.634Z,13.60
2018-11-14T14:26:56.109Z,13.90
2018-11-14T14:29:24.571Z,13.90
2018-11-14T14:31:53.010Z,13.40
2018-11-14T14:34:21.481Z,13.40
2018-11-14T14:36:49.915Z,13.60
2018-11-14T14:39:18.376Z,13.60
2018-11-14T14:41:46.808Z,13.40
2018-11-14T14:44:15.257Z,13.30
2018-11-14T14:46:43.691Z,13.30
2018-11-14T14:49:12.150Z,13.30
2018-11-14T14:51:40.582Z,13.30
2018-11-14T14:54:09.026Z,13.10
2018-11-14T14:56:37.453Z,12.90
2018-11-14T14:59:06.141Z,12.50
2018-11-14T15:01:34.715Z,12.20
2018-11-14T15:04:03.126Z,12.00
2018-11-14T15:06:31.609Z,12.10
2018-11-14T15:09:00.163Z,12.10
2018-11-14T15:11:28.630Z,12.10
2018-11-14T15:13:57.057Z,11.90
2018-11-14T15:16:25.519Z,11.60
2018-11-14T15:18:53.962Z,11.30
2018-11-14T15:21:22.409Z,11.10
2018-11-14T15:23:50.916Z,11.00
2018-11-14T15:26:26.163Z,10.90
2018-11-14T15:28:55.337Z,10.80
2018-11-14T15:31:23.739Z,10.70
2018-11-14T15:33:52.791Z,10.60
2018-11-14T15:36:21.218Z,10.40
2018-11-14T15:38:49.874Z,10.20
2018-11-14T15:41:18.330Z,10.20
2018-11-14T15:43:46.767Z,10.10
2018-11-14T15:46:15.261Z,10.00
2018-11-14T15:48:43.734Z,9.90
2018-11-14T15:51:12.226Z,9.70
2018-11-14T15:53:40.805Z,9.60
2018-11-14T15:56:09.261Z,9.50
2018-11-14T15:58:37.745Z,9.40
2018-11-14T16:01:06.272Z,9.40
2018-11-14T16:03:35.639Z,9.30
2018-11-14T16:06:04.268Z,9.30
2018-11-14T16:08:32.737Z,9.30
2018-11-14T16:11:01.782Z,9.20
2018-11-14T16:13:33.483Z,9.10
2018-11-14T16:16:01.984Z,8.90
2018-11-14T16:18:30.442Z,8.90
2018-11-14T16:20:59.274Z,8.90
2018-11-14T16:23:27.825Z,8.70
2018-11-14T16:25:56.434Z,8.40
2018-11-14T16:28:24.873Z,8.20
2018-11-14T16:30:55.151Z,8.00
2018-11-14T16:33:23.779Z,7.80
2018-11-14T16:35:52.217Z,7.70
2018-11-14T16:38:20.794Z,7.50
2018-11-14T16:40:50.196Z,7.40
2018-11-14T16:43:18.836Z,7.30
2018-11-14T16:45:47.296Z,7.20
2018-11-14T16:48:17.806Z,7.20
2018-11-14T16:50:46.938Z,7.30
2018-11-14T16:53:15.550Z,7.20
2018-11-14T16:55:44.168Z,7.20
2018-11-14T16:58:12.635Z,7.10
2018-11-14T17:00:41.084Z,7.00
2018-11-14T17:03:09.567Z,6.90
2018-11-14T17:05:38.030Z,6.90
2018-11-14T17:08:06.772Z,6.90
2018-11-14T17:10:35.205Z,6.70
2018-11-14T17:13:03.646Z,6.70
2018-11-14T17:15:32.126Z,6.70
2018-11-14T17:18:00.557Z,6.60
2018-11-14T17:20:29.013Z,6.70
2018-11-14T17:22:57.829Z,6.60
2018-11-14T17:25:26.274Z,6.50
2018-11-14T17:27:54.845Z,6.50
2018-11-14T17:30:24.604Z,6.40
2018-11-14T17:32:53.593Z,6.30
2018-11-14T17:35:22.742Z,6.30
2018-11-14T17:37:51.188Z,6.20
2018-11-14T17:40:22.230Z,6.10
2018-11-14T17:42:51.588Z,6.10
2018-11-14T17:45:22.048Z,6.30
2018-11-14T17:47:51.957Z,6.30
2018-11-14T17:50:22.259Z,6.50
2018-11-14T17:52:51.576Z,6.30
2018-11-14T17:55:21.024Z,6.20
2018-11-14T17:57:49.426Z,6.10
2018-11-14T18:00:19.374Z,5.90
2018-11-14T18:02:48.200Z,5.70
2018-11-14T18:05:17.960Z,5.80
2018-11-14T18:07:47.262Z,5.70
2018-11-14T18:10:18.071Z,5.70
2018-11-14T18:12:47.277Z,5.70
2018-11-14T18:15:16.000Z,5.70
2018-11-14T18:17:44.613Z,5.70
2018-11-14T18:20:14.241Z,5.60
2018-11-14T18:22:43.448Z,5.60
2018-11-14T18:25:12.327Z,5.60
2018-11-14T18:27:40.833Z,5.60
2018-11-14T18:30:12.881Z,5.70
2018-11-14T18:32:41.322Z,5.60
2018-11-14T18:35:12.197Z,5.40
2018-11-14T18:37:41.098Z,5.40
2018-11-14T18:40:12.231Z,5.40
2018-11-14T18:42:40.845Z,5.30
2018-11-14T18:45:14.883Z,5.20
2018-11-14T18:47:43.754Z,5.20
2018-11-14T18:50:13.340Z,5.10
2018-11-14T18:52:42.286Z,5.10
2018-11-14T18:55:13.120Z,5.10
2018-11-14T18:57:41.968Z,5.30
2018-11-14T19:00:14.360Z,5.30
2018-11-14T19:02:43.350Z,5.20
2018-11-14T19:05:12.423Z,5.00
2018-11-14T19:07:41.210Z,4.90
2018-11-14T19:10:11.604Z,4.90
2018-11-14T19:12:40.583Z,4.90
2018-11-14T19:15:12.842Z,4.90
2018-11-14T19:17:41.563Z,4.90
2018-11-14T19:20:12.310Z,4.90
2018-11-14T19:22:40.791Z,4.80
2018-11-14T19:25:11.259Z,4.80
2018-11-14T19:27:39.906Z,4.60
2018-11-14T19:30:11.062Z,4.60
2018-11-14T19:32:39.503Z,4.60
2018-11-14T19:35:10.051Z,4.50
2018-11-14T19:37:38.785Z,4.50
2018-11-14T19:40:09.507Z,4.50
2018-11-14T19:42:37.930Z,4.40
2018-11-14T19:45:08.897Z,4.30
2018-11-14T19:47:37.341Z,4.30
2018-11-14T19:50:07.896Z,4.40
2018-11-14T19:52:36.346Z,4.40
2018-11-14T19:55:05.422Z,4.30
2018-11-14T19:57:33.843Z,4.30
2018-11-14T20:00:02.713Z,4.20
2018-11-14T20:02:31.527Z,4.10
2018-11-14T20:05:00.085Z,4.10
2018-11-14T20:07:28.489Z,4.20
2018-11-14T20:09:56.909Z,4.10
2018-11-14T20:12:25.317Z,4.00
2018-11-14T20:14:53.748Z,4.00
2018-11-14T20:17:22.229Z,3.80
2018-11-14T20:19:51.092Z,3.80
2018-11-14T20:22:19.406Z,3.70
2018-11-14T20:24:48.159Z,3.70
2018-11-14T20:27:16.780Z,3.70
2018-11-14T20:29:45.262Z,3.60
2018-11-14T20:32:13.818Z,3.60
2018-11-14T20:34:42.226Z,3.60
2018-11-14T20:37:10.821Z,3.50
2018-11-14T20:39:39.282Z,3.60
2018-11-14T20:42:07.794Z,3.50
2018-11-14T20:44:36.242Z,3.50
2018-11-14T20:47:04.916Z,3.40
2018-11-14T20:49:33.410Z,3.30
2018-11-14T20:52:01.889Z,3.30
2018-11-14T20:54:30.579Z,3.30
2018-11-14T20:56:59.086Z,3.30
2018-11-14T20:59:27.644Z,3.20
2018-11-14T21:01:56.122Z,3.20
2018-11-14T21:04:25.345Z,3.30
2018-11-14T21:06:54.209Z,3.30
2018-11-14T21:09:22.649Z,3.30
2018-11-14T21:11:51.112Z,3.20
2018-11-14T21:14:19.592Z,3.20
2018-11-14T21:16:48.068Z,3.20
2018-11-14T21:19:16.554Z,3.20
2018-11-14T21:21:45.054Z,3.10
2018-11-14T21:24:13.482Z,3.10
2018-11-14T21:26:41.986Z,3.10
2018-11-14T21:29:10.473Z,3.10
2018-11-14T21:31:38.961Z,3.00
2018-11-14T21:34:07.506Z,3.00
2018-11-14T21:36:35.999Z,3.00
2018-11-14T21:39:07.274Z,2.90
2018-11-14T21:41:35.785Z,2.90
2018-11-14T21:44:04.744Z,2.80
2018-11-14T21:46:33.242Z,2.80
2018-11-14T21:49:01.700Z,2.80
2018-11-14T21:51:30.262Z,2.90
2018-11-14T21:53:59.072Z,3.00
2018-11-14T21:56:27.548Z,2.90
2018-11-14T21:58:56.070Z,2.90
2018-11-14T22:01:24.541Z,2.80
2018-11-14T22:03:52.992Z,2.60
2018-11-14T22:06:21.445Z,2.70
2018-11-14T22:08:49.918Z,2.60
2018-11-14T22:11:18.377Z,2.60
2018-11-14T22:13:46.910Z,2.50
2018-11-14T22:16:15.342Z,2.50
2018-11-14T22:18:44.498Z,2.50
2018-11-14T22:21:13.023Z,2.50
2018-11-14T22:23:41.450Z,2.60
2018-11-14T22:26:09.920Z,2.50
2018-11-14T22:28:38.482Z,2.50
2018-11-14T22:31:07.027Z,2.40
2018-11-14T22:33:35.569Z,2.20
2018-11-14T22:36:04.441Z,2.30
2018-11-14T22:38:32.880Z,2.50
2018-11-14T22:41:01.348Z,2.50
2018-11-14T22:43:29.820Z,2.30
2018-11-14T22:45:58.281Z,2.30
2018-11-14T22:48:26.745Z,2.30
2018-11-14T22:50:55.169Z,2.30
2018-11-14T22:53:23.619Z,2.30
2018-11-14T22:55:52.062Z,2.20
2018-11-14T22:58:20.478Z,2.10
2018-11-14T23:00:48.998Z,2.10
2018-11-14T23:03:17.462Z,2.10
2018-11-14T23:05:45.974Z,2.00
2018-11-14T23:08:14.384Z,2.00
2018-11-14T23:10:42.821Z,1.90
2018-11-14T23:13:11.291Z,2.00
2018-11-14T23:15:39.855Z,2.00
2018-11-14T23:18:08.215Z,2.00
2018-11-14T23:20:36.669Z,2.00
2018-11-14T23:23:05.522Z,2.10
2018-11-14T23:25:33.958Z,2.00
2018-11-14T23:28:02.390Z,2.10
2018-11-14T23:30:30.877Z,2.00
2018-11-14T23:32:59.298Z,2.10
2018-11-14T23:35:29.886Z,2.20
2018-11-14T23:38:00.601Z,2.40
2018-11-14T23:40:29.343Z,2.50
2018-11-14T23:42:57.883Z,2.60
2018-11-14T23:45:27.082Z,2.50
2018-11-14T23:47:55.529Z,2.40
2018-11-14T23:50:25.169Z,2.30
2018-11-14T23:52:54.557Z,2.30
2018-11-14T23:55:23.765Z,2.40
2018-11-14T23:57:52.209Z,2.40
